MST,Max TemperatureF,Mean TemperatureF,Min TemperatureF,Max Dew PointF,MeanDew PointF,Min DewpointF,Max Humidity, Mean Humidity, Min Humidity, Max Sea Level PressureIn, Mean Sea Level PressureIn, Min Sea Level PressureIn, Max VisibilityMiles, Mean VisibilityMiles, Min VisibilityMiles, Max Wind SpeedMPH, Mean Wind SpeedMPH, Max Gust SpeedMPH,PrecipitationIn, CloudCover, Events, WindDirDegrees
2012-12-1,55,37,19,26,21,15,89,57,26,30.25,30.12,30.05,10,10,10,16,3,26,0.00,0,,274
2012-12-2,55,35,15,24,17,11,88,51,22,30.24,30.09,29.94,10,10,9,17,3,26,0.00,0,,211
2012-12-3,54,40,21,32,26,18,88,59,37,30.26,30.07,29.94,10,10,10,14,4,18,0.00,2,,237
2012-12-4,55,37,19,24,19,15,92,60,25,30.49,30.36,30.25,10,9,5,9,1,,0.00,0,,205
2012-12-5,64,42,21,20,15,11,75,44,13,30.36,30.16,30.01,10,9,7,14,2,25,0.00,0,,222
2012-12-6,55,38,21,26,19,11,78,51,30,30.03,29.94,29.87,10,10,8,13,2,22,0.00,0,,281
2012-12-7,54,36,17,26,19,13,88,61,29,30.01,29.94,29.86,10,10,10,13,2,21,0.00,1,,256
2012-12-8,51,30,10,20,10,5,88,49,17,30.04,29.92,29.82,10,10,10,17,4,22,0.00,0,,237
2012-12-9,39,24,6,23,9,-5,80,52,27,30.24,29.99,29.79,10,8,2,23,7,32,0.00,3,Snow,335
2012-12-10,41,20,0,11,0,-7,76,49,25,30.37,30.22,30.10,10,10,10,13,2,17,0.00,0,,226
2012-12-11,42,22,1,11,3,-4,76,51,24,30.23,30.14,30.06,10,10,10,12,2,21,0.00,0,,346
2012-12-12,50,28,5,7,3,-1,76,45,16,30.20,30.09,30.00,10,10,10,18,3,25,0.00,0,,213
2012-12-13,53,30,8,15,6,-2,67,46,17,30.14,30.00,29.79,10,10,10,18,2,24,0.00,1,,206
2012-12-14,34,31,28,32,29,20,100,87,64,29.94,29.73,29.59,10,4,0,28,9,34,0.44,8,Fog-Rain-Snow,203
2012-12-15,32,26,18,30,26,14,100,90,78,29.92,29.83,29.77,10,4,0,17,10,23,0.21,7,Fog-Snow,235
2012-12-16,26,14,3,20,10,1,100,86,69,30.22,30.03,29.90,10,6,0,17,3,24,0.00,3,Fog,253
2012-12-17,32,18,5,28,16,1,96,85,75,30.27,30.11,29.94,10,9,6,10,2,,0.00,6,,246
2012-12-18,37,34,30,32,29,25,88,80,70,29.93,29.78,29.55,10,10,10,18,7,26,0.01,7,Rain,219
2012-12-19,36,18,0,32,18,-4,93,79,52,30.45,29.79,29.47,10,5,1,21,13,31,0.12,6,Snow,271
2012-12-20,30,10,-9,7,-1,-13,92,68,33,30.69,30.57,30.45,10,10,10,8,2,,0.00,0,,151
2012-12-21,44,22,0,12,4,-5,87,64,21,30.53,30.41,30.23,10,10,10,0,0,,0.00,0,,-1
2012-12-22,12,,12,8,8,8,81,81,81,30.30,30.30,30.30,10,10,10,0,0,,0.00,0,,-1
2012-12-23,18,18,18,15,15,14,88,86,84,30.18,30.14,30.11,10,10,10,0,0,,0.00,0,,-1
2012-12-24,30,28,28,14,12,9,50,48,45,29.92,29.92,29.92,10,10,10,12,7,23,0.00,0,,230
2012-12-25,10,,10,4,4,4,73,73,73,30.06,30.06,30.06,10,10,10,0,0,,0.00,0,,-1
2012-12-26,39,21,3,27,20,1,100,79,28,30.07,29.82,29.74,10,5,1,20,6,30,0.04,7,Snow,232
2012-12-27,30,23,14,21,17,11,89,79,49,29.94,29.81,29.73,10,9,1,14,5,,0.01,6,Snow,264
2012-12-28,28,14,-4,14,7,-7,88,72,47,30.37,30.14,29.95,10,10,10,13,3,,0.00,2,,18
2012-12-29,32,12,-9,10,1,-14,88,67,35,30.45,30.28,30.12,10,10,10,9,1,,0.00,0,,125
2012-12-30,42,24,7,27,17,4,100,76,32,30.09,29.90,29.77,10,6,0,10,1,,0.09,4,Fog-Snow,220
2012-12-31,26,19,12,25,18,9,100,85,69,30.14,29.89,29.73,10,6,2,15,4,22,0.02,7,Snow,243